Terminal Aerodrome Forecast
Issued by NWS Portland, OR

Home | Current Version | Previous Version | Text Only | Print | Product List | Glossary On
Versions: 1 2 3 4 5 6 7 8 9 10 11 12 13 14 15 16 17
000
FTUS46 KPQR 300558 AAA
TAFEUG
TAF AMD
KEUG 300558Z 3006/3106 26008KT P6SM BKN018
     FM301000 21007KT P6SM OVC025
     FM301600 21004KT P6SM BKN035
     FM301800 23006KT P6SM BKN050
     FM310000 27009KT P6SM BKN100=

USA.gov is the U.S. government's official web portal to all federal, state and local government web resources and services.